sensor_id;sensor_type;location;lat;lon;timestamp;P1;durP1;ratioP1;P2;durP2;ratioP2
10711;SDS011;5407;51.234;6.804;2023-04-15T00:01:57;3.97;;;1.90;;
10711;SDS011;5407;51.234;6.804;2023-04-15T00:04:24;4.78;;;1.90;;
10711;SDS011;5407;51.234;6.804;2023-04-15T00:06:51;2.10;;;1.88;;
10711;SDS011;5407;51.234;6.804;2023-04-15T00:09:18;2.25;;;1.80;;
10711;SDS011;5407;51.234;6.804;2023-04-15T00:11:45;2.33;;;1.90;;
10711;SDS011;5407;51.234;6.804;2023-04-15T00:14:14;1.90;;;1.73;;
10711;SDS011;5407;51.234;6.804;2023-04-15T00:16:41;1.95;;;1.70;;
10711;SDS011;5407;51.234;6.804;2023-04-15T00:19:08;1.73;;;1.63;;
10711;SDS011;5407;51.234;6.804;2023-04-15T00:21:35;1.98;;;1.80;;
10711;SDS011;5407;51.234;6.804;2023-04-15T00:24:02;2.25;;;1.80;;
10711;SDS011;5407;51.234;6.804;2023-04-15T00:26:29;2.67;;;1.90;;
10711;SDS011;5407;51.234;6.804;2023-04-15T00:28:56;2.78;;;1.80;;
10711;SDS011;5407;51.234;6.804;2023-04-15T00:31:24;2.03;;;1.63;;
10711;SDS011;5407;51.234;6.804;2023-04-15T00:33:51;1.77;;;1.67;;
10711;SDS011;5407;51.234;6.804;2023-04-15T00:36:20;2.13;;;1.70;;
10711;SDS011;5407;51.234;6.804;2023-04-15T00:38:48;2.28;;;1.85;;
10711;SDS011;5407;51.234;6.804;2023-04-15T00:41:15;2.55;;;1.88;;
10711;SDS011;5407;51.234;6.804;2023-04-15T00:43:43;2.58;;;1.98;;
10711;SDS011;5407;51.234;6.804;2023-04-15T00:46:11;2.20;;;1.75;;
10711;SDS011;5407;51.234;6.804;2023-04-15T00:48:41;2.08;;;1.88;;
10711;SDS011;5407;51.234;6.804;2023-04-15T00:51:08;2.42;;;1.95;;
10711;SDS011;5407;51.234;6.804;2023-04-15T00:53:35;2.42;;;1.70;;
10711;SDS011;5407;51.234;6.804;2023-04-15T00:56:03;2.63;;;1.77;;
10711;SDS011;5407;51.234;6.804;2023-04-15T00:58:30;1.85;;;1.70;;
10711;SDS011;5407;51.234;6.804;2023-04-15T01:00:57;2.10;;;1.90;;
10711;SDS011;5407;51.234;6.804;2023-04-15T01:03:25;2.20;;;1.70;;
10711;SDS011;5407;51.234;6.804;2023-04-15T01:05:54;2.10;;;1.90;;
10711;SDS011;5407;51.234;6.804;2023-04-15T01:08:22;2.20;;;1.70;;
10711;SDS011;5407;51.234;6.804;2023-04-15T01:10:52;3.22;;;1.95;;
10711;SDS011;5407;51.234;6.804;2023-04-15T01:13:20;2.03;;;1.63;;
10711;SDS011;5407;51.234;6.804;2023-04-15T01:15:48;2.00;;;1.70;;
10711;SDS011;5407;51.234;6.804;2023-04-15T01:18:16;1.98;;;1.75;;
10711;SDS011;5407;51.234;6.804;2023-04-15T01:20:44;2.05;;;1.73;;
10711;SDS011;5407;51.234;6.804;2023-04-15T01:23:12;1.63;;;1.50;;
10711;SDS011;5407;51.234;6.804;2023-04-15T01:25:40;2.25;;;2.03;;
10711;SDS011;5407;51.234;6.804;2023-04-15T01:28:09;2.05;;;1.75;;
10711;SDS011;5407;51.234;6.804;2023-04-15T01:30:36;2.50;;;1.70;;
10711;SDS011;5407;51.234;6.804;2023-04-15T01:33:02;2.13;;;1.67;;
10711;SDS011;5407;51.234;6.804;2023-04-15T01:35:29;2.83;;;1.70;;
10711;SDS011;5407;51.234;6.804;2023-04-15T01:37:57;3.47;;;1.83;;
10711;SDS011;5407;51.234;6.804;2023-04-15T01:40:30;1.77;;;1.65;;
10711;SDS011;5407;51.234;6.804;2023-04-15T01:42:59;1.60;;;1.50;;
10711;SDS011;5407;51.234;6.804;2023-04-15T01:45:26;1.77;;;1.50;;
10711;SDS011;5407;51.234;6.804;2023-04-15T01:47:53;2.40;;;1.80;;
10711;SDS011;5407;51.234;6.804;2023-04-15T01:50:20;2.30;;;1.80;;
10711;SDS011;5407;51.234;6.804;2023-04-15T01:52:47;2.13;;;1.83;;
10711;SDS011;5407;51.234;6.804;2023-04-15T01:55:14;1.98;;;1.73;;
10711;SDS011;5407;51.234;6.804;2023-04-15T01:57:40;1.55;;;1.45;;
10711;SDS011;5407;51.234;6.804;2023-04-15T02:00:09;1.92;;;1.80;;
10711;SDS011;5407;51.234;6.804;2023-04-15T02:02:40;2.15;;;1.83;;
10711;SDS011;5407;51.234;6.804;2023-04-15T02:05:07;2.45;;;1.77;;
10711;SDS011;5407;51.234;6.804;2023-04-15T02:07:35;1.65;;;1.55;;
10711;SDS011;5407;51.234;6.804;2023-04-15T02:10:02;1.73;;;1.60;;
10711;SDS011;5407;51.234;6.804;2023-04-15T02:12:29;1.73;;;1.63;;
10711;SDS011;5407;51.234;6.804;2023-04-15T02:14:56;1.98;;;1.67;;
10711;SDS011;5407;51.234;6.804;2023-04-15T02:17:24;1.58;;;1.48;;
10711;SDS011;5407;51.234;6.804;2023-04-15T02:19:51;4.38;;;1.90;;
10711;SDS011;5407;51.234;6.804;2023-04-15T02:22:18;1.52;;;1.42;;
10711;SDS011;5407;51.234;6.804;2023-04-15T02:24:45;1.60;;;1.48;;
10711;SDS011;5407;51.234;6.804;2023-04-15T02:27:14;2.22;;;1.65;;
10711;SDS011;5407;51.234;6.804;2023-04-15T02:29:42;1.90;;;1.60;;
10711;SDS011;5407;51.234;6.804;2023-04-15T02:32:09;2.20;;;1.60;;
10711;SDS011;5407;51.234;6.804;2023-04-15T02:34:38;1.60;;;1.50;;
10711;SDS011;5407;51.234;6.804;2023-04-15T02:37:08;2.97;;;1.80;;
10711;SDS011;5407;51.234;6.804;2023-04-15T02:39:35;1.83;;;1.60;;
10711;SDS011;5407;51.234;6.804;2023-04-15T02:42:03;1.85;;;1.60;;
10711;SDS011;5407;51.234;6.804;2023-04-15T02:44:30;1.88;;;1.67;;
10711;SDS011;5407;51.234;6.804;2023-04-15T02:47:01;1.65;;;1.50;;
10711;SDS011;5407;51.234;6.804;2023-04-15T02:49:29;2.25;;;1.60;;
10711;SDS011;5407;51.234;6.804;2023-04-15T02:51:57;1.92;;;1.40;;
10711;SDS011;5407;51.234;6.804;2023-04-15T02:54:24;1.70;;;1.60;;
10711;SDS011;5407;51.234;6.804;2023-04-15T02:56:53;1.58;;;1.42;;
10711;SDS011;5407;51.234;6.804;2023-04-15T02:59:21;1.50;;;1.40;;
10711;SDS011;5407;51.234;6.804;2023-04-15T03:01:48;1.92;;;1.45;;
10711;SDS011;5407;51.234;6.804;2023-04-15T03:04:15;2.22;;;1.52;;
10711;SDS011;5407;51.234;6.804;2023-04-15T03:06:41;2.00;;;1.40;;
10711;SDS011;5407;51.234;6.804;2023-04-15T03:09:10;1.50;;;1.40;;
10711;SDS011;5407;51.234;6.804;2023-04-15T03:11:37;1.50;;;1.40;;
10711;SDS011;5407;51.234;6.804;2023-04-15T03:14:07;1.85;;;1.50;;
10711;SDS011;5407;51.234;6.804;2023-04-15T03:16:38;1.83;;;1.65;;
10711;SDS011;5407;51.234;6.804;2023-04-15T03:19:05;1.60;;;1.50;;
10711;SDS011;5407;51.234;6.804;2023-04-15T03:21:33;1.52;;;1.42;;
10711;SDS011;5407;51.234;6.804;2023-04-15T03:24:00;2.10;;;1.55;;
10711;SDS011;5407;51.234;6.804;2023-04-15T03:26:28;1.73;;;1.50;;
10711;SDS011;5407;51.234;6.804;2023-04-15T03:29:00;1.50;;;1.38;;
10711;SDS011;5407;51.234;6.804;2023-04-15T03:31:27;1.40;;;1.30;;
10711;SDS011;5407;51.234;6.804;2023-04-15T03:33:54;1.77;;;1.67;;
10711;SDS011;5407;51.234;6.804;2023-04-15T03:36:22;1.35;;;1.25;;
10711;SDS011;5407;51.234;6.804;2023-04-15T03:38:49;1.45;;;1.35;;
10711;SDS011;5407;51.234;6.804;2023-04-15T03:41:15;1.75;;;1.50;;
10711;SDS011;5407;51.234;6.804;2023-04-15T03:43:44;1.50;;;1.40;;
10711;SDS011;5407;51.234;6.804;2023-04-15T03:46:10;1.60;;;1.50;;
10711;SDS011;5407;51.234;6.804;2023-04-15T03:48:37;2.25;;;1.48;;
10711;SDS011;5407;51.234;6.804;2023-04-15T03:51:04;1.67;;;1.58;;
10711;SDS011;5407;51.234;6.804;2023-04-15T03:53:31;2.92;;;1.80;;
10711;SDS011;5407;51.234;6.804;2023-04-15T03:55:58;1.92;;;1.55;;
10711;SDS011;5407;51.234;6.804;2023-04-15T03:58:25;2.58;;;1.67;;
10711;SDS011;5407;51.234;6.804;2023-04-15T04:00:53;2.20;;;1.48;;
10711;SDS011;5407;51.234;6.804;2023-04-15T04:03:20;1.70;;;1.60;;
10711;SDS011;5407;51.234;6.804;2023-04-15T04:05:47;1.92;;;1.50;;
10711;SDS011;5407;51.234;6.804;2023-04-15T04:08:14;12.70;;;1.63;;
10711;SDS011;5407;51.234;6.804;2023-04-15T04:10:41;2.67;;;1.60;;
10711;SDS011;5407;51.234;6.804;2023-04-15T04:13:08;2.03;;;1.50;;
10711;SDS011;5407;51.234;6.804;2023-04-15T04:15:35;3.88;;;1.48;;
10711;SDS011;5407;51.234;6.804;2023-04-15T04:18:03;3.22;;;1.50;;
10711;SDS011;5407;51.234;6.804;2023-04-15T04:20:30;1.98;;;1.38;;
10711;SDS011;5407;51.234;6.804;2023-04-15T04:22:57;1.95;;;1.40;;
10711;SDS011;5407;51.234;6.804;2023-04-15T04:25:24;1.90;;;1.50;;
10711;SDS011;5407;51.234;6.804;2023-04-15T04:27:51;1.65;;;1.50;;
10711;SDS011;5407;51.234;6.804;2023-04-15T04:30:18;5.63;;;1.60;;
10711;SDS011;5407;51.234;6.804;2023-04-15T04:32:45;2.35;;;1.50;;
10711;SDS011;5407;51.234;6.804;2023-04-15T04:35:13;1.77;;;1.50;;
10711;SDS011;5407;51.234;6.804;2023-04-15T04:37:40;2.42;;;1.42;;
10711;SDS011;5407;51.234;6.804;2023-04-15T04:40:07;2.00;;;1.70;;
10711;SDS011;5407;51.234;6.804;2023-04-15T04:42:35;1.92;;;1.38;;
10711;SDS011;5407;51.234;6.804;2023-04-15T04:45:02;1.50;;;1.40;;
10711;SDS011;5407;51.234;6.804;2023-04-15T04:47:29;2.28;;;1.60;;
10711;SDS011;5407;51.234;6.804;2023-04-15T04:49:56;1.42;;;1.33;;
10711;SDS011;5407;51.234;6.804;2023-04-15T04:52:24;1.35;;;1.25;;
10711;SDS011;5407;51.234;6.804;2023-04-15T04:54:50;2.05;;;1.48;;
10711;SDS011;5407;51.234;6.804;2023-04-15T04:57:17;1.40;;;1.30;;
10711;SDS011;5407;51.234;6.804;2023-04-15T04:59:44;1.50;;;1.40;;
10711;SDS011;5407;51.234;6.804;2023-04-15T05:02:11;3.67;;;1.50;;
10711;SDS011;5407;51.234;6.804;2023-04-15T05:04:38;1.95;;;1.60;;
10711;SDS011;5407;51.234;6.804;2023-04-15T05:07:05;1.40;;;1.30;;
10711;SDS011;5407;51.234;6.804;2023-04-15T05:09:34;2.38;;;1.70;;
10711;SDS011;5407;51.234;6.804;2023-04-15T05:12:01;8.43;;;1.63;;
10711;SDS011;5407;51.234;6.804;2023-04-15T05:14:29;2.08;;;1.73;;
10711;SDS011;5407;51.234;6.804;2023-04-15T05:16:56;1.75;;;1.63;;
10711;SDS011;5407;51.234;6.804;2023-04-15T05:19:23;2.75;;;1.33;;
10711;SDS011;5407;51.234;6.804;2023-04-15T05:21:50;1.65;;;1.40;;
10711;SDS011;5407;51.234;6.804;2023-04-15T05:24:17;3.30;;;1.52;;
10711;SDS011;5407;51.234;6.804;2023-04-15T05:26:45;2.25;;;1.27;;
10711;SDS011;5407;51.234;6.804;2023-04-15T05:29:11;1.48;;;1.38;;
10711;SDS011;5407;51.234;6.804;2023-04-15T05:31:38;2.05;;;1.55;;
10711;SDS011;5407;51.234;6.804;2023-04-15T05:34:05;1.63;;;1.50;;
10711;SDS011;5407;51.234;6.804;2023-04-15T05:36:32;1.88;;;1.60;;
10711;SDS011;5407;51.234;6.804;2023-04-15T05:38:59;3.08;;;1.65;;
10711;SDS011;5407;51.234;6.804;2023-04-15T05:41:26;1.52;;;1.42;;
10711;SDS011;5407;51.234;6.804;2023-04-15T05:43:54;1.42;;;1.33;;
10711;SDS011;5407;51.234;6.804;2023-04-15T05:46:21;1.60;;;1.50;;
10711;SDS011;5407;51.234;6.804;2023-04-15T05:48:47;1.75;;;1.65;;
10711;SDS011;5407;51.234;6.804;2023-04-15T05:51:14;1.80;;;1.65;;
10711;SDS011;5407;51.234;6.804;2023-04-15T05:53:41;1.70;;;1.60;;
10711;SDS011;5407;51.234;6.804;2023-04-15T05:56:08;1.55;;;1.30;;
10711;SDS011;5407;51.234;6.804;2023-04-15T05:58:35;1.60;;;1.50;;
10711;SDS011;5407;51.234;6.804;2023-04-15T06:01:03;1.60;;;1.50;;
10711;SDS011;5407;51.234;6.804;2023-04-15T06:03:31;1.63;;;1.52;;
10711;SDS011;5407;51.234;6.804;2023-04-15T06:05:58;1.60;;;1.50;;
10711;SDS011;5407;51.234;6.804;2023-04-15T06:08:25;1.30;;;1.20;;
10711;SDS011;5407;51.234;6.804;2023-04-15T06:10:53;1.77;;;1.67;;
10711;SDS011;5407;51.234;6.804;2023-04-15T06:13:19;1.60;;;1.50;;
10711;SDS011;5407;51.234;6.804;2023-04-15T06:15:46;1.70;;;1.60;;
10711;SDS011;5407;51.234;6.804;2023-04-15T06:18:15;1.60;;;1.50;;
10711;SDS011;5407;51.234;6.804;2023-04-15T06:20:42;2.38;;;1.70;;
10711;SDS011;5407;51.234;6.804;2023-04-15T06:23:08;1.95;;;1.60;;
10711;SDS011;5407;51.234;6.804;2023-04-15T06:25:35;1.85;;;1.45;;
10711;SDS011;5407;51.234;6.804;2023-04-15T06:28:02;1.50;;;1.40;;
10711;SDS011;5407;51.234;6.804;2023-04-15T06:30:29;1.50;;;1.40;;
10711;SDS011;5407;51.234;6.804;2023-04-15T06:32:56;1.73;;;1.63;;
10711;SDS011;5407;51.234;6.804;2023-04-15T06:35:25;1.83;;;1.60;;
10711;SDS011;5407;51.234;6.804;2023-04-15T06:37:52;1.35;;;1.25;;
10711;SDS011;5407;51.234;6.804;2023-04-15T06:40:18;1.60;;;1.50;;
10711;SDS011;5407;51.234;6.804;2023-04-15T06:42:45;1.67;;;1.33;;
10711;SDS011;5407;51.234;6.804;2023-04-15T06:45:14;1.60;;;1.50;;
10711;SDS011;5407;51.234;6.804;2023-04-15T06:47:41;1.60;;;1.50;;
10711;SDS011;5407;51.234;6.804;2023-04-15T06:50:08;1.48;;;1.38;;
10711;SDS011;5407;51.234;6.804;2023-04-15T06:52:37;1.58;;;1.48;;
10711;SDS011;5407;51.234;6.804;2023-04-15T06:55:04;1.63;;;1.50;;
10711;SDS011;5407;51.234;6.804;2023-04-15T06:57:32;1.48;;;1.38;;
10711;SDS011;5407;51.234;6.804;2023-04-15T06:59:58;1.60;;;1.48;;
10711;SDS011;5407;51.234;6.804;2023-04-15T07:02:26;1.52;;;1.42;;
10711;SDS011;5407;51.234;6.804;2023-04-15T07:04:52;1.52;;;1.42;;
10711;SDS011;5407;51.234;6.804;2023-04-15T07:07:19;1.67;;;1.58;;
10711;SDS011;5407;51.234;6.804;2023-04-15T07:09:48;1.50;;;1.40;;
10711;SDS011;5407;51.234;6.804;2023-04-15T07:12:14;1.48;;;1.38;;
10711;SDS011;5407;51.234;6.804;2023-04-15T07:14:42;1.65;;;1.45;;
10711;SDS011;5407;51.234;6.804;2023-04-15T07:17:09;1.40;;;1.30;;
10711;SDS011;5407;51.234;6.804;2023-04-15T07:19:36;1.30;;;1.20;;
10711;SDS011;5407;51.234;6.804;2023-04-15T07:22:03;1.45;;;1.35;;
10711;SDS011;5407;51.234;6.804;2023-04-15T07:24:30;1.10;;;1.10;;
10711;SDS011;5407;51.234;6.804;2023-04-15T07:26:58;1.25;;;1.15;;
10711;SDS011;5407;51.234;6.804;2023-04-15T07:29:26;1.33;;;1.23;;
10711;SDS011;5407;51.234;6.804;2023-04-15T07:31:52;1.40;;;1.30;;
10711;SDS011;5407;51.234;6.804;2023-04-15T07:34:21;1.30;;;1.20;;
10711;SDS011;5407;51.234;6.804;2023-04-15T07:36:48;1.27;;;1.17;;
10711;SDS011;5407;51.234;6.804;2023-04-15T07:39:16;1.40;;;1.30;;
10711;SDS011;5407;51.234;6.804;2023-04-15T07:41:43;1.08;;;1.08;;
10711;SDS011;5407;51.234;6.804;2023-04-15T07:44:12;1.30;;;1.20;;
10711;SDS011;5407;51.234;6.804;2023-04-15T07:46:38;1.13;;;1.10;;
10711;SDS011;5407;51.234;6.804;2023-04-15T07:49:06;1.33;;;1.00;;
10711;SDS011;5407;51.234;6.804;2023-04-15T07:51:32;1.15;;;1.10;;
10711;SDS011;5407;51.234;6.804;2023-04-15T07:53:59;1.13;;;1.02;;
10711;SDS011;5407;51.234;6.804;2023-04-15T07:56:28;1.10;;;1.00;;
10711;SDS011;5407;51.234;6.804;2023-04-15T07:58:55;1.00;;;1.00;;
10711;SDS011;5407;51.234;6.804;2023-04-15T08:01:23;1.70;;;1.27;;
10711;SDS011;5407;51.234;6.804;2023-04-15T08:03:50;1.40;;;1.30;;
10711;SDS011;5407;51.234;6.804;2023-04-15T08:06:17;1.23;;;1.13;;
10711;SDS011;5407;51.234;6.804;2023-04-15T08:08:44;1.25;;;1.15;;
10711;SDS011;5407;51.234;6.804;2023-04-15T08:11:11;1.30;;;1.20;;
10711;SDS011;5407;51.234;6.804;2023-04-15T08:13:38;1.30;;;1.20;;
10711;SDS011;5407;51.234;6.804;2023-04-15T08:18:50;1.40;;;1.30;;
10711;SDS011;5407;51.234;6.804;2023-04-15T08:21:18;1.13;;;1.10;;
10711;SDS011;5407;51.234;6.804;2023-04-15T08:23:46;1.02;;;1.00;;
10711;SDS011;5407;51.234;6.804;2023-04-15T08:26:14;1.10;;;1.00;;
10711;SDS011;5407;51.234;6.804;2023-04-15T08:28:42;1.00;;;1.00;;
10711;SDS011;5407;51.234;6.804;2023-04-15T08:31:10;0.90;;;0.90;;
10711;SDS011;5407;51.234;6.804;2023-04-15T08:33:37;1.45;;;1.30;;
10711;SDS011;5407;51.234;6.804;2023-04-15T08:36:06;1.73;;;1.30;;
10711;SDS011;5407;51.234;6.804;2023-04-15T08:38:33;2.35;;;1.13;;
10711;SDS011;5407;51.234;6.804;2023-04-15T08:41:01;1.10;;;1.10;;
10711;SDS011;5407;51.234;6.804;2023-04-15T08:43:38;1.02;;;1.02;;
10711;SDS011;5407;51.234;6.804;2023-04-15T08:46:12;1.15;;;1.05;;
10711;SDS011;5407;51.234;6.804;2023-04-15T08:48:40;1.40;;;1.30;;
10711;SDS011;5407;51.234;6.804;2023-04-15T08:51:09;1.23;;;1.17;;
10711;SDS011;5407;51.234;6.804;2023-04-15T08:53:40;1.38;;;1.23;;
10711;SDS011;5407;51.234;6.804;2023-04-15T08:56:08;1.08;;;1.08;;
10711;SDS011;5407;51.234;6.804;2023-04-15T08:58:37;1.23;;;1.13;;
10711;SDS011;5407;51.234;6.804;2023-04-15T09:01:04;1.10;;;1.00;;
10711;SDS011;5407;51.234;6.804;2023-04-15T09:03:31;1.13;;;1.02;;
10711;SDS011;5407;51.234;6.804;2023-04-15T09:05:59;1.00;;;1.00;;
10711;SDS011;5407;51.234;6.804;2023-04-15T09:08:27;0.95;;;0.95;;
10711;SDS011;5407;51.234;6.804;2023-04-15T09:10:54;0.98;;;0.95;;
10711;SDS011;5407;51.234;6.804;2023-04-15T09:13:21;0.90;;;0.90;;
10711;SDS011;5407;51.234;6.804;2023-04-15T09:15:48;0.88;;;0.88;;
10711;SDS011;5407;51.234;6.804;2023-04-15T09:18:25;1.10;;;1.00;;
10711;SDS011;5407;51.234;6.804;2023-04-15T09:20:53;1.00;;;1.00;;
10711;SDS011;5407;51.234;6.804;2023-04-15T09:23:20;1.20;;;1.10;;
10711;SDS011;5407;51.234;6.804;2023-04-15T09:25:49;0.82;;;0.82;;
10711;SDS011;5407;51.234;6.804;2023-04-15T09:28:22;1.02;;;0.95;;
10711;SDS011;5407;51.234;6.804;2023-04-15T09:30:51;1.60;;;1.02;;
10711;SDS011;5407;51.234;6.804;2023-04-15T09:33:21;1.67;;;1.10;;
10711;SDS011;5407;51.234;6.804;2023-04-15T09:35:57;0.93;;;0.90;;
10711;SDS011;5407;51.234;6.804;2023-04-15T09:38:26;1.45;;;0.90;;
10711;SDS011;5407;51.234;6.804;2023-04-15T09:40:55;0.98;;;0.98;;
10711;SDS011;5407;51.234;6.804;2023-04-15T09:43:22;0.93;;;0.93;;
10711;SDS011;5407;51.234;6.804;2023-04-15T09:46:02;0.93;;;0.93;;
10711;SDS011;5407;51.234;6.804;2023-04-15T09:48:29;3.17;;;0.98;;
10711;SDS011;5407;51.234;6.804;2023-04-15T09:50:56;0.95;;;0.95;;
10711;SDS011;5407;51.234;6.804;2023-04-15T09:53:24;0.70;;;0.70;;
10711;SDS011;5407;51.234;6.804;2023-04-15T09:55:52;2.17;;;0.90;;
10711;SDS011;5407;51.234;6.804;2023-04-15T09:58:22;1.52;;;1.00;;
10711;SDS011;5407;51.234;6.804;2023-04-15T10:00:51;1.33;;;1.00;;
10711;SDS011;5407;51.234;6.804;2023-04-15T10:03:20;1.48;;;0.80;;
10711;SDS011;5407;51.234;6.804;2023-04-15T10:05:48;0.73;;;0.73;;
10711;SDS011;5407;51.234;6.804;2023-04-15T10:08:17;4.40;;;1.00;;
10711;SDS011;5407;51.234;6.804;2023-04-15T10:10:45;0.80;;;0.80;;
10711;SDS011;5407;51.234;6.804;2023-04-15T10:13:16;0.80;;;0.80;;
10711;SDS011;5407;51.234;6.804;2023-04-15T10:15:47;1.10;;;1.00;;
10711;SDS011;5407;51.234;6.804;2023-04-15T10:18:18;0.60;;;0.60;;
10711;SDS011;5407;51.234;6.804;2023-04-15T10:20:47;1.23;;;0.80;;
10711;SDS011;5407;51.234;6.804;2023-04-15T10:23:14;1.00;;;0.90;;
10711;SDS011;5407;51.234;6.804;2023-04-15T10:25:41;1.00;;;1.00;;
10711;SDS011;5407;51.234;6.804;2023-04-15T10:28:08;0.95;;;0.95;;
10711;SDS011;5407;51.234;6.804;2023-04-15T10:30:36;0.75;;;0.75;;
10711;SDS011;5407;51.234;6.804;2023-04-15T10:33:05;0.93;;;0.90;;
10711;SDS011;5407;51.234;6.804;2023-04-15T10:35:34;0.93;;;0.90;;
10711;SDS011;5407;51.234;6.804;2023-04-15T10:38:02;0.90;;;0.90;;
10711;SDS011;5407;51.234;6.804;2023-04-15T10:41:12;0.93;;;0.93;;
10711;SDS011;5407;51.234;6.804;2023-04-15T10:43:52;0.85;;;0.85;;
10711;SDS011;5407;51.234;6.804;2023-04-15T10:46:20;0.82;;;0.80;;
10711;SDS011;5407;51.234;6.804;2023-04-15T10:48:51;0.77;;;0.77;;
10711;SDS011;5407;51.234;6.804;2023-04-15T10:51:29;2.70;;;0.98;;
10711;SDS011;5407;51.234;6.804;2023-04-15T10:53:56;2.80;;;1.10;;
10711;SDS011;5407;51.234;6.804;2023-04-15T10:56:25;3.88;;;1.25;;
10711;SDS011;5407;51.234;6.804;2023-04-15T10:58:54;4.30;;;1.10;;
10711;SDS011;5407;51.234;6.804;2023-04-15T11:01:21;5.50;;;1.10;;
10711;SDS011;5407;51.234;6.804;2023-04-15T11:03:48;2.50;;;1.38;;
10711;SDS011;5407;51.234;6.804;2023-04-15T11:06:17;6.20;;;1.35;;
10711;SDS011;5407;51.234;6.804;2023-04-15T11:08:53;3.13;;;1.10;;
10711;SDS011;5407;51.234;6.804;2023-04-15T11:11:23;7.70;;;1.10;;
10711;SDS011;5407;51.234;6.804;2023-04-15T11:14:31;6.43;;;1.20;;
10711;SDS011;5407;51.234;6.804;2023-04-15T11:16:59;1.73;;;1.05;;
10711;SDS011;5407;51.234;6.804;2023-04-15T11:19:28;4.22;;;1.20;;
10711;SDS011;5407;51.234;6.804;2023-04-15T11:22:06;2.85;;;1.17;;
10711;SDS011;5407;51.234;6.804;2023-04-15T11:24:34;0.95;;;0.93;;
10711;SDS011;5407;51.234;6.804;2023-04-15T11:27:01;3.13;;;0.90;;
10711;SDS011;5407;51.234;6.804;2023-04-15T11:29:28;4.03;;;0.90;;
10711;SDS011;5407;51.234;6.804;2023-04-15T11:32:05;1.45;;;0.82;;
10711;SDS011;5407;51.234;6.804;2023-04-15T11:34:34;2.40;;;0.88;;
10711;SDS011;5407;51.234;6.804;2023-04-15T11:37:02;1.50;;;0.75;;
10711;SDS011;5407;51.234;6.804;2023-04-15T11:39:32;0.90;;;0.77;;
10711;SDS011;5407;51.234;6.804;2023-04-15T11:41:59;1.95;;;0.90;;
10711;SDS011;5407;51.234;6.804;2023-04-15T11:44:26;0.98;;;0.90;;
10711;SDS011;5407;51.234;6.804;2023-04-15T11:46:53;1.65;;;0.90;;
10711;SDS011;5407;51.234;6.804;2023-04-15T11:49:27;5.03;;;1.00;;
10711;SDS011;5407;51.234;6.804;2023-04-15T11:51:54;1.52;;;1.10;;
10711;SDS011;5407;51.234;6.804;2023-04-15T11:54:21;1.48;;;0.90;;
10711;SDS011;5407;51.234;6.804;2023-04-15T11:56:50;2.40;;;0.85;;
10711;SDS011;5407;51.234;6.804;2023-04-15T11:59:18;0.93;;;0.88;;
10711;SDS011;5407;51.234;6.804;2023-04-15T12:01:45;3.03;;;1.00;;
10711;SDS011;5407;51.234;6.804;2023-04-15T12:04:13;2.53;;;0.88;;
10711;SDS011;5407;51.234;6.804;2023-04-15T12:06:41;1.50;;;1.00;;
10711;SDS011;5407;51.234;6.804;2023-04-15T12:09:11;1.60;;;0.93;;
10711;SDS011;5407;51.234;6.804;2023-04-15T12:11:40;1.80;;;0.93;;
10711;SDS011;5407;51.234;6.804;2023-04-15T12:14:10;1.67;;;1.17;;
10711;SDS011;5407;51.234;6.804;2023-04-15T12:16:42;1.15;;;0.80;;
10711;SDS011;5407;51.234;6.804;2023-04-15T12:19:11;2.55;;;1.05;;
10711;SDS011;5407;51.234;6.804;2023-04-15T12:21:40;0.70;;;0.70;;
10711;SDS011;5407;51.234;6.804;2023-04-15T12:24:09;2.58;;;0.80;;
10711;SDS011;5407;51.234;6.804;2023-04-15T12:26:42;1.55;;;0.80;;
10711;SDS011;5407;51.234;6.804;2023-04-15T12:29:12;1.23;;;1.00;;
10711;SDS011;5407;51.234;6.804;2023-04-15T12:31:47;0.93;;;0.90;;
10711;SDS011;5407;51.234;6.804;2023-04-15T12:34:23;1.88;;;0.90;;
10711;SDS011;5407;51.234;6.804;2023-04-15T12:36:52;2.30;;;0.98;;
10711;SDS011;5407;51.234;6.804;2023-04-15T12:39:20;0.90;;;0.90;;
10711;SDS011;5407;51.234;6.804;2023-04-15T12:41:48;1.30;;;0.70;;
10711;SDS011;5407;51.234;6.804;2023-04-15T12:44:16;0.98;;;0.98;;
10711;SDS011;5407;51.234;6.804;2023-04-15T12:46:44;1.13;;;0.77;;
10711;SDS011;5407;51.234;6.804;2023-04-15T12:49:10;2.10;;;0.75;;
10711;SDS011;5407;51.234;6.804;2023-04-15T12:51:38;1.30;;;0.80;;
10711;SDS011;5407;51.234;6.804;2023-04-15T12:54:05;0.77;;;0.77;;
10711;SDS011;5407;51.234;6.804;2023-04-15T12:56:32;1.13;;;0.90;;
10711;SDS011;5407;51.234;6.804;2023-04-15T12:58:59;1.48;;;0.63;;
10711;SDS011;5407;51.234;6.804;2023-04-15T13:01:27;0.90;;;0.90;;
10711;SDS011;5407;51.234;6.804;2023-04-15T13:03:54;1.60;;;0.90;;
10711;SDS011;5407;51.234;6.804;2023-04-15T13:06:21;1.52;;;1.00;;
10711;SDS011;5407;51.234;6.804;2023-04-15T13:08:48;3.25;;;1.25;;
10711;SDS011;5407;51.234;6.804;2023-04-15T13:11:15;1.40;;;1.30;;
10711;SDS011;5407;51.234;6.804;2023-04-15T13:13:44;1.00;;;1.00;;
10711;SDS011;5407;51.234;6.804;2023-04-15T13:16:11;1.23;;;1.13;;
10711;SDS011;5407;51.234;6.804;2023-04-15T13:18:39;2.30;;;1.25;;
10711;SDS011;5407;51.234;6.804;2023-04-15T13:21:06;1.98;;;1.30;;
10711;SDS011;5407;51.234;6.804;2023-04-15T13:23:35;1.40;;;1.30;;
10711;SDS011;5407;51.234;6.804;2023-04-15T13:26:01;1.30;;;1.20;;
10711;SDS011;5407;51.234;6.804;2023-04-15T13:28:28;2.45;;;1.40;;
10711;SDS011;5407;51.234;6.804;2023-04-15T13:30:55;1.70;;;1.40;;
10711;SDS011;5407;51.234;6.804;2023-04-15T13:33:22;1.55;;;1.30;;
10711;SDS011;5407;51.234;6.804;2023-04-15T13:35:50;1.60;;;1.50;;
10711;SDS011;5407;51.234;6.804;2023-04-15T13:38:17;2.47;;;1.50;;
10711;SDS011;5407;51.234;6.804;2023-04-15T13:40:44;1.63;;;1.40;;
10711;SDS011;5407;51.234;6.804;2023-04-15T13:43:11;2.00;;;1.40;;
10711;SDS011;5407;51.234;6.804;2023-04-15T13:45:38;2.45;;;1.40;;
10711;SDS011;5407;51.234;6.804;2023-04-15T13:48:05;1.45;;;1.30;;
10711;SDS011;5407;51.234;6.804;2023-04-15T13:50:32;2.00;;;1.55;;
10711;SDS011;5407;51.234;6.804;2023-04-15T13:53:00;1.70;;;1.40;;
10711;SDS011;5407;51.234;6.804;2023-04-15T13:55:27;1.83;;;1.35;;
10711;SDS011;5407;51.234;6.804;2023-04-15T13:57:55;2.60;;;1.50;;
10711;SDS011;5407;51.234;6.804;2023-04-15T14:00:22;1.40;;;1.30;;
10711;SDS011;5407;51.234;6.804;2023-04-15T14:02:49;2.83;;;1.75;;
10711;SDS011;5407;51.234;6.804;2023-04-15T14:05:15;1.70;;;1.38;;
10711;SDS011;5407;51.234;6.804;2023-04-15T14:07:42;1.67;;;1.50;;
10711;SDS011;5407;51.234;6.804;2023-04-15T14:10:11;1.50;;;1.40;;
10711;SDS011;5407;51.234;6.804;2023-04-15T14:12:37;2.10;;;1.35;;
10711;SDS011;5407;51.234;6.804;2023-04-15T14:15:04;2.85;;;1.70;;
10711;SDS011;5407;51.234;6.804;2023-04-15T14:17:32;2.55;;;1.40;;
10711;SDS011;5407;51.234;6.804;2023-04-15T14:19:59;2.85;;;1.70;;
10711;SDS011;5407;51.234;6.804;2023-04-15T14:22:26;2.42;;;1.38;;
10711;SDS011;5407;51.234;6.804;2023-04-15T14:24:53;1.52;;;1.35;;
10711;SDS011;5407;51.234;6.804;2023-04-15T14:27:21;2.60;;;1.33;;
10711;SDS011;5407;51.234;6.804;2023-04-15T14:29:48;1.83;;;1.33;;
10711;SDS011;5407;51.234;6.804;2023-04-15T14:32:15;2.25;;;1.58;;
10711;SDS011;5407;51.234;6.804;2023-04-15T14:34:42;1.60;;;1.23;;
10711;SDS011;5407;51.234;6.804;2023-04-15T14:37:09;1.65;;;1.40;;
10711;SDS011;5407;51.234;6.804;2023-04-15T14:39:36;2.50;;;1.83;;
10711;SDS011;5407;51.234;6.804;2023-04-15T14:42:03;3.30;;;1.88;;
10711;SDS011;5407;51.234;6.804;2023-04-15T14:44:31;1.95;;;1.73;;
10711;SDS011;5407;51.234;6.804;2023-04-15T14:46:58;2.20;;;1.80;;
10711;SDS011;5407;51.234;6.804;2023-04-15T14:49:25;1.73;;;1.58;;
10711;SDS011;5407;51.234;6.804;2023-04-15T14:51:51;2.67;;;1.80;;
10711;SDS011;5407;51.234;6.804;2023-04-15T14:54:18;3.17;;;1.77;;
10711;SDS011;5407;51.234;6.804;2023-04-15T14:56:45;2.20;;;1.70;;
10711;SDS011;5407;51.234;6.804;2023-04-15T14:59:12;2.08;;;1.65;;
10711;SDS011;5407;51.234;6.804;2023-04-15T15:01:41;1.92;;;1.50;;
10711;SDS011;5407;51.234;6.804;2023-04-15T15:04:08;1.95;;;1.42;;
10711;SDS011;5407;51.234;6.804;2023-04-15T15:06:35;3.13;;;1.73;;
10711;SDS011;5407;51.234;6.804;2023-04-15T15:09:02;2.47;;;1.50;;